Time;durP1;ratioP1;P1;durP2;ratioP2;P2;SDS_P1;SDS_P2;PMS_P1;PMS_P2;Temp;Humidity;BMP_temperature;BMP_pressure;BME280_temperature;BME280_humidity;BME280_pressure;Samples;Min_cycle;Max_cycle;Signal;HPM_P1;HPM_P2
2022/02/24 00:00:28;;;;;;;0.30;0.10;;;;;;;5.90;100.00;100643.00;5000680;28;20453;-48
2022/02/24 00:02:54;;;;;;;1.27;1.27;;;;;;;5.86;100.00;100638.56;5011520;28;20472;-49
2022/02/24 00:05:21;;;;;;;0.57;0.57;;;;;;;5.88;100.00;100626.25;5000903;28;20452;-49
2022/02/24 00:07:48;;;;;;;0.20;0.10;;;;;;;5.69;100.00;100628.09;5011977;28;20503;-48
2022/02/24 00:10:15;;;;;;;0.20;0.10;;;;;;;5.74;100.00;100615.75;5013189;28;20452;-48
2022/02/24 00:12:43;;;;;;;0.60;0.60;;;;;;;5.58;100.00;100614.91;4999839;28;20473;-49
2022/02/24 00:15:10;;;;;;;0.30;0.30;;;;;;;5.70;100.00;100607.84;5014578;28;20453;-49
2022/02/24 00:17:38;;;;;;;0.20;0.10;;;;;;;5.88;100.00;100620.97;5013163;28;20483;-49
2022/02/24 00:20:08;;;;;;;0.20;0.10;;;;;;;5.80;100.00;100609.59;4999847;28;20528;-49
2022/02/24 00:22:35;;;;;;;0.30;0.20;;;;;;;5.58;100.00;100614.03;5000415;28;20887;-49
2022/02/24 00:25:03;;;;;;;0.30;0.20;;;;;;;5.78;100.00;100614.00;4999370;28;20453;-49
2022/02/24 00:27:30;;;;;;;0.20;0.20;;;;;;;5.80;100.00;100604.31;5014601;28;20503;-49
2022/02/24 00:29:57;;;;;;;0.20;0.20;;;;;;;5.70;100.00;100603.47;5015122;28;20953;-49
2022/02/24 00:32:23;;;;;;;0.20;0.20;;;;;;;5.77;100.00;100612.25;4997009;28;20477;-49
2022/02/24 00:34:50;;;;;;;0.20;0.13;;;;;;;6.10;100.00;100605.97;5010363;28;20573;-49
2022/02/24 00:37:18;;;;;;;0.30;0.20;;;;;;;6.04;100.00;100606.00;5016468;28;20500;-49
2022/02/24 00:39:44;;;;;;;0.20;0.20;;;;;;;5.97;100.00;100601.63;5003147;28;20457;-49
2022/02/24 00:42:11;;;;;;;0.20;0.20;;;;;;;6.07;100.00;100606.84;5016249;28;20595;-49
2022/02/24 00:44:38;;;;;;;0.20;0.10;;;;;;;6.00;100.00;100605.13;5016078;28;20968;-50
2022/02/24 00:47:05;;;;;;;0.20;0.20;;;;;;;5.93;100.00;100606.03;5016057;28;20483;-49
2022/02/24 00:49:32;;;;;;;0.20;0.10;;;;;;;5.87;100.00;100601.63;5000876;28;20449;-50
2022/02/24 00:51:59;;;;;;;0.30;0.20;;;;;;;5.86;100.00;100607.78;5005465;28;20468;-49
2022/02/24 00:54:26;;;;;;;0.20;0.20;;;;;;;5.84;100.00;100604.28;5016048;28;20449;-49
2022/02/24 00:56:53;;;;;;;0.20;0.10;;;;;;;5.86;100.00;100604.28;5015866;28;21020;-49
2022/02/24 00:59:19;;;;;;;0.20;0.10;;;;;;;6.19;100.00;100598.88;5002687;28;20456;-50
2022/02/24 01:01:47;;;;;;;0.20;0.20;;;;;;;6.11;100.00;100586.59;5015766;28;20985;-49
2022/02/24 01:04:17;;;;;;;0.20;0.10;;;;;;;6.00;100.00;100578.72;5012299;28;20505;-49
2022/02/24 01:06:43;;;;;;;0.20;0.20;;;;;;;5.95;100.00;100591.09;5006642;28;20976;-49
2022/02/24 01:09:10;;;;;;;0.30;0.20;;;;;;;6.02;100.00;100582.22;5015787;28;20507;-49
2022/02/24 01:11:37;;;;;;;0.20;0.10;;;;;;;6.07;100.00;100585.75;5004851;28;20887;-49
2022/02/24 01:14:04;;;;;;;0.30;0.20;;;;;;;6.06;100.00;100583.13;5013342;28;20463;-50
2022/02/24 01:16:31;;;;;;;0.20;0.10;;;;;;;6.00;100.00;100580.50;5015672;28;20504;-49
2022/02/24 01:18:58;;;;;;;0.20;0.10;;;;;;;6.00;100.00;100575.22;5010707;28;20457;-49
2022/02/24 01:21:24;;;;;;;0.60;0.60;;;;;;;6.03;100.00;100572.56;5007410;28;20507;-49
2022/02/24 01:23:51;;;;;;;0.20;0.10;;;;;;;5.94;100.00;100568.22;5015545;28;20453;-49
2022/02/24 01:26:18;;;;;;;0.20;0.10;;;;;;;5.91;100.00;100569.13;5004035;28;20449;-49
2022/02/24 01:28:44;;;;;;;0.20;0.20;;;;;;;6.00;100.00;100572.56;5014145;28;20444;-49
2022/02/24 01:31:13;;;;;;;0.40;0.40;;;;;;;6.00;100.00;100562.03;5015410;28;20468;-50
2022/02/24 01:33:41;;;;;;;0.30;0.20;;;;;;;5.97;100.00;100559.41;5015258;28;20476;-49
2022/02/24 01:36:08;;;;;;;0.20;0.20;;;;;;;6.09;100.00;100562.84;5015452;28;20514;-50
2022/02/24 01:38:35;;;;;;;0.30;0.10;;;;;;;6.08;100.00;100554.94;5001534;28;20492;-49
2022/02/24 01:41:01;;;;;;;0.20;0.10;;;;;;;5.89;100.00;100555.03;5015115;28;20973;-50
2022/02/24 01:43:28;;;;;;;2.40;1.70;;;;;;;5.93;100.00;100548.00;5009458;28;20449;-49
2022/02/24 01:45:55;;;;;;;0.60;0.60;;;;;;;6.16;100.00;100548.72;5012218;28;20461;-49
2022/02/24 01:48:21;;;;;;;0.30;0.30;;;;;;;6.12;100.00;100541.72;5009385;28;20638;-49
2022/02/24 01:50:49;;;;;;;0.40;0.40;;;;;;;6.00;100.00;100543.56;5007816;28;20449;-50
2022/02/24 01:53:15;;;;;;;0.20;0.17;;;;;;;5.98;100.00;100533.00;5009159;28;20450;-50
2022/02/24 01:55:42;;;;;;;0.20;0.17;;;;;;;6.00;100.00;100528.59;5008004;28;20503;-49
2022/02/24 01:58:09;;;;;;;1.10;0.87;;;;;;;6.00;100.00;100525.09;5014790;28;20909;-50
2022/02/24 02:00:35;;;;;;;0.20;0.10;;;;;;;5.99;100.00;100524.22;5002117;28;20529;-49
2022/02/24 02:03:02;;;;;;;0.20;0.10;;;;;;;5.94;100.00;100515.47;5014394;28;20530;-49
2022/02/24 02:05:31;;;;;;;0.30;0.20;;;;;;;5.96;100.00;100516.31;5001694;28;20450;-49
2022/02/24 02:07:58;;;;;;;0.20;0.20;;;;;;;5.97;100.00;100510.16;5014689;28;20825;-49
2022/02/24 02:10:25;;;;;;;0.20;0.10;;;;;;;5.97;100.00;100504.00;5014393;28;21003;-49
2022/02/24 02:12:53;;;;;;;0.63;0.63;;;;;;;6.00;100.00;100501.34;5001600;28;20472;-49
2022/02/24 02:15:21;;;;;;;0.20;0.13;;;;;;;6.00;100.00;100501.34;5014370;28;20448;-49
2022/02/24 02:17:48;;;;;;;0.20;0.20;;;;;;;5.98;100.00;100496.09;5007362;28;20532;-50
2022/02/24 02:20:15;;;;;;;0.20;0.10;;;;;;;5.98;100.00;100496.09;5008779;28;20476;-49
2022/02/24 02:22:43;;;;;;;0.20;0.13;;;;;;;6.05;100.00;100481.97;5014335;28;20522;-49
2022/02/24 02:25:11;;;;;;;1.07;0.83;;;;;;;6.07;100.00;100488.09;5001370;28;20453;-50
2022/02/24 02:27:39;;;;;;;0.20;0.10;;;;;;;6.29;100.00;100480.00;5014564;28;20453;-49
2022/02/24 02:30:08;;;;;;;0.30;0.20;;;;;;;6.32;100.00;100477.38;5012515;28;20475;-49
2022/02/24 02:32:35;;;;;;;0.20;0.17;;;;;;;6.62;100.00;100477.09;5003327;28;20476;-49
2022/02/24 02:35:03;;;;;;;0.20;0.20;;;;;;;6.62;100.00;100463.88;5014253;28;20809;-49
2022/02/24 02:37:29;;;;;;;0.20;0.20;;;;;;;6.28;100.00;100458.03;5004751;28;20492;-50
2022/02/24 02:39:56;;;;;;;0.70;0.70;;;;;;;6.13;100.00;100455.50;5010669;28;20534;-49
2022/02/24 02:42:23;;;;;;;0.40;0.40;;;;;;;6.15;100.00;100451.09;5014065;28;20534;-49
2022/02/24 02:44:49;;;;;;;0.20;0.10;;;;;;;6.38;100.00;100454.41;5013955;28;20453;-49
2022/02/24 02:47:17;;;;;;;0.20;0.10;;;;;;;6.54;100.00;100456.03;5003840;28;20528;-50
2022/02/24 02:49:44;;;;;;;0.30;0.20;;;;;;;6.31;100.00;100447.47;5009885;28;21015;-49
2022/02/24 02:52:11;;;;;;;0.20;0.10;;;;;;;6.18;100.00;100451.97;5013707;28;20973;-49
2022/02/24 02:54:38;;;;;;;0.20;0.10;;;;;;;6.22;100.00;100447.53;4997273;28;20492;-49
2022/02/24 02:57:04;;;;;;;0.20;0.10;;;;;;;6.21;100.00;100443.16;5017613;28;20452;-49
2022/02/24 02:59:31;;;;;;;0.20;0.20;;;;;;;6.26;100.00;100443.09;5011784;28;20504;-50
2022/02/24 03:01:58;;;;;;;0.20;0.20;;;;;;;6.32;100.00;100435.13;5004720;28;20469;-49
2022/02/24 03:04:25;;;;;;;0.20;0.10;;;;;;;6.28;100.00;100431.63;5008876;28;20483;-49
2022/02/24 03:06:52;;;;;;;0.20;0.20;;;;;;;6.27;100.00;100429.88;5004949;28;20875;-49
2022/02/24 03:09:18;;;;;;;0.20;0.10;;;;;;;6.31;100.00;100428.97;5013345;28;20536;-49
2022/02/24 03:11:48;;;;;;;0.30;0.20;;;;;;;6.24;100.00;100420.22;5001715;28;20477;-49
2022/02/24 03:14:14;;;;;;;0.20;0.20;;;;;;;6.36;100.00;100431.56;5010685;28;20455;-49
2022/02/24 03:16:41;;;;;;;0.20;0.20;;;;;;;6.34;100.00;100426.31;5013567;28;20452;-49
2022/02/24 03:19:11;;;;;;;0.20;0.13;;;;;;;6.34;100.00;100426.31;5000063;28;20499;-49
2022/02/24 03:21:37;;;;;;;0.20;0.10;;;;;;;6.30;100.00;100419.28;5013458;28;20548;-49
2022/02/24 03:24:05;;;;;;;0.30;0.30;;;;;;;6.32;100.00;100417.53;5007067;28;20457;-49
2022/02/24 03:26:37;;;;;;;0.20;0.20;;;;;;;6.26;100.00;100414.94;5007326;28;20455;-49
2022/02/24 03:29:03;;;;;;;0.20;0.10;;;;;;;6.26;100.00;100411.41;5013302;28;21003;-49
2022/02/24 03:31:30;;;;;;;0.20;0.20;;;;;;;6.23;100.00;100397.38;4999448;28;20527;-49
2022/02/24 03:33:57;;;;;;;0.40;0.40;;;;;;;6.39;100.00;100402.50;5000568;28;20459;-49
2022/02/24 03:36:24;;;;;;;0.20;0.20;;;;;;;6.47;100.00;100396.25;5012950;28;21009;-50
2022/02/24 03:38:50;;;;;;;0.20;0.17;;;;;;;6.51;100.00;100389.16;5005978;28;20521;-49
2022/02/24 03:41:17;;;;;;;0.20;0.10;;;;;;;6.45;100.00;100383.97;5006817;28;20485;-49
2022/02/24 03:43:44;;;;;;;0.20;0.13;;;;;;;6.47;100.00;100379.53;5013025;28;20453;-49
2022/02/24 03:46:11;;;;;;;0.20;0.10;;;;;;;6.48;100.00;100378.66;5012661;28;20491;-49
2022/02/24 03:48:39;;;;;;;0.20;0.10;;;;;;;6.50;100.00;100375.09;5005487;28;20456;-50
2022/02/24 03:51:05;;;;;;;0.20;0.10;;;;;;;6.50;100.00;100375.09;5007247;28;20484;-49
2022/02/24 03:53:32;;;;;;;0.20;0.10;;;;;;;6.52;100.00;100369.78;5012866;28;20499;-50
2022/02/24 03:56:00;;;;;;;0.63;0.63;;;;;;;6.51;100.00;100365.41;5003776;28;20845;-49
2022/02/24 03:58:26;;;;;;;0.20;0.10;;;;;;;6.45;100.00;100366.38;5023504;28;20594;-49
2022/02/24 04:00:53;;;;;;;0.20;0.10;;;;;;;6.44;100.00;100359.34;4999007;28;20508;-49
2022/02/24 04:03:23;;;;;;;0.20;0.10;;;;;;;6.39;100.00;100353.22;5012953;28;20444;-50
2022/02/24 04:05:50;;;;;;;0.30;0.20;;;;;;;6.44;100.00;100359.34;4999692;28;20507;-49
2022/02/24 04:08:18;;;;;;;0.20;0.17;;;;;;;6.45;100.00;100345.25;5012697;28;20871;-49
2022/02/24 04:10:44;;;;;;;0.20;0.20;;;;;;;6.63;100.00;100356.47;5008910;28;20474;-50
2022/02/24 04:13:11;;;;;;;0.20;0.10;;;;;;;6.52;100.00;100352.19;5003018;28;20484;-49
2022/02/24 04:15:38;;;;;;;0.30;0.20;;;;;;;6.47;100.00;100350.50;5012701;28;20448;-49
2022/02/24 04:18:06;;;;;;;0.20;0.10;;;;;;;6.48;100.00;100334.63;5002473;28;20496;-49
2022/02/24 04:20:33;;;;;;;0.30;0.30;;;;;;;6.57;100.00;100340.69;5010038;28;20511;-50
2022/02/24 04:23:00;;;;;;;0.20;0.10;;;;;;;6.45;100.00;100331.16;5012609;28;20552;-50
2022/02/24 04:25:26;;;;;;;0.30;0.30;;;;;;;6.42;100.00;100328.53;4999022;28;20491;-50
2022/02/24 04:27:53;;;;;;;0.27;0.17;;;;;;;6.41;100.00;100327.66;5012346;28;20452;-49
2022/02/24 04:30:21;;;;;;;0.20;0.10;;;;;;;6.42;100.00;100328.53;5007862;28;20955;-50
2022/02/24 04:32:47;;;;;;;0.30;0.20;;;;;;;6.40;100.00;100319.75;5004206;28;20468;-49
2022/02/24 04:35:15;;;;;;;0.20;0.10;;;;;;;6.38;100.00;100321.56;5012276;28;20452;-50
2022/02/24 04:37:42;;;;;;;0.97;0.97;;;;;;;6.42;100.00;100318.84;5000854;28;20500;-49
2022/02/24 04:40:12;;;;;;;0.20;0.10;;;;;;;6.46;100.00;100325.00;5011013;28;20448;-49
2022/02/24 04:42:39;;;;;;;0.20;0.10;;;;;;;6.43;100.00;100320.59;5012732;28;20506;-48
2022/02/24 04:45:06;;;;;;;0.20;0.20;;;;;;;6.39;100.00;100321.53;5002607;28;20452;-48
2022/02/24 04:47:33;;;;;;;0.20;0.20;;;;;;;6.41;100.00;100310.94;5007314;28;20445;-48
2022/02/24 04:49:59;;;;;;;0.20;0.10;;;;;;;6.44;100.00;100322.38;5006276;28;20481;-48
2022/02/24 04:52:26;;;;;;;0.30;0.30;;;;;;;6.40;100.00;100312.72;5005501;28;20476;-48
2022/02/24 04:54:53;;;;;;;0.20;0.10;;;;;;;6.39;100.00;100303.06;5012616;28;20972;-48
2022/02/24 04:57:21;;;;;;;0.20;0.10;;;;;;;6.44;100.00;100298.63;5025058;28;20489;-47
2022/02/24 04:59:47;;;;;;;0.30;0.20;;;;;;;6.61;100.00;100298.41;5005713;28;20449;-48
2022/02/24 05:02:17;;;;;;;1.13;1.13;;;;;;;6.57;100.00;100294.03;5005325;28;20911;-48
2022/02/24 05:04:44;;;;;;;0.20;0.10;;;;;;;6.40;100.00;100288.09;5005515;28;20798;-48
2022/02/24 05:07:11;;;;;;;0.20;0.10;;;;;;;6.42;100.00;100281.00;5005753;28;20459;-49
2022/02/24 05:09:39;;;;;;;0.20;0.10;;;;;;;6.41;100.00;100287.19;5011974;28;20528;-48
2022/02/24 05:12:06;;;;;;;0.20;0.10;;;;;;;6.59;100.00;100276.44;4998970;28;20469;-48
2022/02/24 05:14:33;;;;;;;0.20;0.10;;;;;;;6.34;100.00;100282.88;5015366;28;20449;-48
2022/02/24 05:17:01;;;;;;;0.20;0.10;;;;;;;6.35;100.00;100284.63;5015253;28;20499;-48
2022/02/24 05:19:27;;;;;;;0.20;0.20;;;;;;;6.48;100.00;100279.19;5003037;28;20496;-48
2022/02/24 05:21:54;;;;;;;0.20;0.10;;;;;;;6.40;100.00;100277.53;5015292;28;20522;-48
2022/02/24 05:24:23;;;;;;;0.20;0.20;;;;;;;6.24;100.00;100267.16;5007527;28;20541;-48
2022/02/24 05:26:50;;;;;;;0.20;0.20;;;;;;;6.40;100.00;100262.56;5010581;28;20459;-47
2022/02/24 05:29:16;;;;;;;0.20;0.10;;;;;;;6.43;100.00;100269.56;5015472;28;20448;-48
2022/02/24 05:31:43;;;;;;;0.20;0.20;;;;;;;6.41;100.00;100256.38;5002061;28;20986;-48
2022/02/24 05:34:10;;;;;;;0.20;0.10;;;;;;;6.20;100.00;100254.88;5015311;28;20824;-48
2022/02/24 05:36:38;;;;;;;0.20;0.20;;;;;;;6.33;100.00;100252.09;5013050;28;20452;-48
2022/02/24 05:39:05;;;;;;;0.20;0.10;;;;;;;6.42;100.00;100241.41;5004522;28;20523;-46
2022/02/24 05:41:31;;;;;;;0.20;0.10;;;;;;;6.39;100.00;100239.69;5014920;28;20879;-46
2022/02/24 05:44:01;;;;;;;0.20;0.20;;;;;;;6.60;100.00;100232.41;5007092;28;20486;-47
2022/02/24 05:46:28;;;;;;;0.30;0.30;;;;;;;6.47;100.00;100237.84;5012069;28;20962;-47
2022/02/24 05:48:54;;;;;;;0.20;0.10;;;;;;;6.57;100.00;100219.22;5004898;28;20449;-47
2022/02/24 05:51:21;;;;;;;0.20;0.10;;;;;;;6.65;100.00;100220.00;5013667;28;20469;-46
2022/02/24 05:53:48;;;;;;;1.33;1.23;;;;;;;6.50;100.00;100226.38;5005323;28;20460;-47
2022/02/24 05:56:15;;;;;;;0.20;0.10;;;;;;;6.81;100.00;100217.13;5015805;28;20873;-47
2022/02/24 05:58:42;;;;;;;0.20;0.10;;;;;;;6.55;100.00;100219.25;5023678;28;20520;-47
2022/02/24 06:01:10;;;;;;;0.20;0.20;;;;;;;6.63;100.00;100225.31;5001682;28;20476;-48
2022/02/24 06:03:37;;;;;;;0.20;0.20;;;;;;;6.56;100.00;100218.34;5014625;28;20555;-48
2022/02/24 06:06:05;;;;;;;0.20;0.10;;;;;;;6.52;100.00;100221.94;5001793;28;20548;-49
2022/02/24 06:08:31;;;;;;;0.20;0.10;;;;;;;6.56;100.00;100217.47;5014783;28;20445;-48
2022/02/24 06:10:58;;;;;;;0.93;0.87;;;;;;;6.60;100.00;100222.72;5008782;28;20527;-48
2022/02/24 06:13:26;;;;;;;0.20;0.20;;;;;;;6.40;100.00;100220.31;5006174;28;20453;-48
2022/02/24 06:15:52;;;;;;;0.27;0.17;;;;;;;6.52;100.00;100214.88;5014321;28;20502;-48
2022/02/24 06:18:19;;;;;;;0.20;0.10;;;;;;;6.67;100.00;100220.84;5001853;28;21001;-48
2022/02/24 06:20:46;;;;;;;0.47;0.47;;;;;;;6.37;100.00;100214.22;5014303;28;20455;-48
2022/02/24 06:23:13;;;;;;;0.20;0.13;;;;;;;6.36;100.00;100217.75;5014240;28;20491;-48
2022/02/24 06:25:40;;;;;;;0.20;0.20;;;;;;;6.43;100.00;100216.75;4999979;28;20460;-48
2022/02/24 06:28:07;;;;;;;0.20;0.10;;;;;;;6.24;100.00;100222.28;5001281;28;20453;-49
2022/02/24 06:30:34;;;;;;;0.30;0.20;;;;;;;6.36;100.00;100213.34;5014126;28;20871;-48
2022/02/24 06:33:02;;;;;;;0.40;0.40;;;;;;;6.43;100.00;100227.31;5013415;28;20473;-48
2022/02/24 06:35:29;;;;;;;0.30;0.20;;;;;;;6.27;100.00;100216.09;5001727;28;20463;-48
2022/02/24 06:37:56;;;;;;;0.60;0.60;;;;;;;6.35;100.00;100210.72;5013932;28;20471;-48
2022/02/24 06:40:23;;;;;;;0.20;0.10;;;;;;;6.37;100.00;100204.53;5006566;28;20450;-48
2022/02/24 06:42:49;;;;;;;0.20;0.10;;;;;;;6.50;100.00;100211.41;5008323;28;21008;-48
2022/02/24 06:45:16;;;;;;;0.20;0.10;;;;;;;6.42;100.00;100201.81;5013776;28;20452;-48
2022/02/24 06:47:43;;;;;;;0.70;0.60;;;;;;;6.44;100.00;100197.38;5000525;28;20453;-48
2022/02/24 06:50:11;;;;;;;0.20;0.10;;;;;;;6.44;100.00;100193.00;5014000;28;20480;-48
2022/02/24 06:52:42;;;;;;;0.30;0.20;;;;;;;6.40;100.00;100188.63;5012176;28;20849;-48
2022/02/24 06:55:09;;;;;;;0.20;0.10;;;;;;;6.37;100.00;100171.97;5002813;28;20452;-48
2022/02/24 06:57:44;;;;;;;0.20;0.13;;;;;;;6.38;100.00;100177.22;5026635;28;20482;-48
2022/02/24 07:00:12;;;;;;;0.20;0.10;;;;;;;6.37;100.00;100174.63;5003953;28;21060;-49
2022/02/24 07:02:39;;;;;;;0.20;0.17;;;;;;;6.36;100.00;100176.38;5010341;28;20472;-48
2022/02/24 07:05:08;;;;;;;0.20;0.10;;;;;;;6.34;100.00;100172.91;5003485;28;21016;-49
2022/02/24 07:07:35;;;;;;;0.50;0.50;;;;;;;6.32;100.00;100174.69;5010466;28;20449;-49
2022/02/24 07:10:04;;;;;;;0.20;0.10;;;;;;;6.38;100.00;100177.22;5013361;28;20495;-49
2022/02/24 07:12:31;;;;;;;0.20;0.10;;;;;;;6.40;100.00;100179.84;4999814;28;20473;-49
2022/02/24 07:14:58;;;;;;;0.40;0.40;;;;;;;6.42;100.00;100175.41;5013372;28;20455;-48
2022/02/24 07:17:25;;;;;;;0.80;0.67;;;;;;;6.40;100.00;100171.94;5008762;28;20575;-48
2022/02/24 07:19:52;;;;;;;0.30;0.20;;;;;;;6.67;100.00;100171.53;5004932;28;20551;-49
2022/02/24 07:22:18;;;;;;;0.67;0.67;;;;;;;6.57;100.00;100175.19;5012817;28;20472;-49
2022/02/24 07:24:45;;;;;;;0.20;0.17;;;;;;;6.60;100.00;100176.94;5001499;28;20994;-49
2022/02/24 07:27:12;;;;;;;0.20;0.13;;;;;;;6.67;100.00;100168.91;5011611;28;20781;-49
2022/02/24 07:29:39;;;;;;;0.20;0.20;;;;;;;6.61;100.00;100176.06;5013175;28;20510;-48
2022/02/24 07:32:06;;;;;;;0.20;0.20;;;;;;;6.73;100.00;100168.81;4999828;28;20468;-49
2022/02/24 07:34:33;;;;;;;0.87;0.87;;;;;;;6.66;100.00;100176.84;5013214;28;20483;-49
2022/02/24 07:37:00;;;;;;;0.20;0.20;;;;;;;6.80;100.00;100172.22;5007128;28;20961;-48
2022/02/24 07:39:26;;;;;;;0.20;0.20;;;;;;;6.84;100.00;100166.88;5004888;28;20571;-48
2022/02/24 07:41:53;;;;;;;0.30;0.30;;;;;;;6.80;100.00;100169.59;5012737;28;20488;-49
2022/02/24 07:44:20;;;;;;;0.20;0.10;;;;;;;6.82;100.00;100158.09;5004814;28;20507;-49
2022/02/24 07:46:46;;;;;;;0.20;0.20;;;;;;;7.09;100.00;100140.06;5007231;28;20877;-49
2022/02/24 07:49:13;;;;;;;0.20;0.10;;;;;;;6.89;100.00;100150.97;5005212;28;20445;-48
2022/02/24 07:51:43;;;;;;;0.20;0.10;;;;;;;6.75;100.00;100159.09;5012404;28;20468;-48
2022/02/24 07:54:09;;;;;;;0.30;0.20;;;;;;;6.85;100.00;100159.81;4999936;28;20485;-49
2022/02/24 07:56:36;;;;;;;0.20;0.10;;;;;;;6.85;100.00;100154.53;5019323;28;20465;-49
2022/02/24 07:59:02;;;;;;;0.20;0.20;;;;;;;6.80;100.00;100161.66;5018353;28;20492;-48
2022/02/24 08:01:29;;;;;;;0.20;0.10;;;;;;;6.97;100.00;100154.34;4999826;28;21028;-49
2022/02/24 08:03:56;;;;;;;0.30;0.30;;;;;;;6.93;100.00;100147.38;5011937;28;20448;-48
2022/02/24 08:06:22;;;;;;;0.20;0.20;;;;;;;7.02;100.00;100147.22;5000447;28;20829;-49
2022/02/24 08:08:49;;;;;;;0.30;0.30;;;;;;;7.07;100.00;100140.09;5012382;28;20507;-48
2022/02/24 08:11:15;;;;;;;0.20;0.10;;;;;;;6.92;100.00;100142.13;5005129;28;20635;-48
2022/02/24 08:13:42;;;;;;;0.20;0.20;;;;;;;7.00;100.00;100142.88;5006945;28;20499;-49
2022/02/24 08:16:09;;;;;;;0.20;0.10;;;;;;;7.03;100.00;100133.13;5012965;28;20445;-49
2022/02/24 08:18:36;;;;;;;0.30;0.20;;;;;;;6.94;100.00;100135.03;4999406;28;20528;-49
2022/02/24 08:21:03;;;;;;;2.23;2.20;;;;;;;6.90;100.00;100138.63;5012449;28;20468;-49
2022/02/24 08:23:29;;;;;;;0.20;0.10;;;;;;;6.92;100.00;100135.06;5011205;28;20453;-49
2022/02/24 08:25:56;;;;;;;0.20;0.20;;;;;;;6.98;100.00;100128.78;5001208;28;20449;-49
2022/02/24 08:28:23;;;;;;;0.20;0.10;;;;;;;7.00;100.00;100137.59;5011117;28;20455;-48
2022/02/24 08:30:50;;;;;;;0.20;0.20;;;;;;;7.01;100.00;100134.03;5004314;28;20449;-49
2022/02/24 08:33:16;;;;;;;0.30;0.20;;;;;;;7.07;100.00;100123.34;5007441;28;20449;-49
2022/02/24 08:35:43;;;;;;;0.20;0.20;;;;;;;7.12;100.00;100113.56;5012138;28;20452;-49
2022/02/24 08:38:10;;;;;;;0.30;0.20;;;;;;;7.16;100.00;100101.19;4999394;28;20605;-48
2022/02/24 08:40:36;;;;;;;4.07;1.27;;;;;;;7.18;100.00;100096.75;5012338;28;20496;-48
2022/02/24 08:43:03;;;;;;;0.20;0.10;;;;;;;7.30;100.00;100102.69;5009845;28;20480;-48
2022/02/24 08:45:30;;;;;;;0.20;0.20;;;;;;;7.36;100.00;100101.69;5005706;28;20449;-48
2022/02/24 08:47:57;;;;;;;0.20;0.20;;;;;;;7.52;100.00;100089.03;5000123;28;20900;-48
2022/02/24 08:50:23;;;;;;;1.70;1.70;;;;;;;7.61;100.00;100091.53;5015825;28;20476;-48
2022/02/24 08:53:01;;;;;;;2.30;1.80;;;;;;;7.62;100.00;100085.31;5011838;28;20504;-48
2022/02/24 08:55:29;;;;;;;0.30;0.20;;;;;;;7.97;100.00;100076.69;5007035;28;20448;-48
2022/02/24 08:57:57;;;;;;;0.20;0.20;;;;;;;7.79;100.00;100072.63;5028890;28;21019;-48
2022/02/24 09:00:27;;;;;;;0.30;0.20;;;;;;;7.83;100.00;100082.25;5004165;28;20492;-48
2022/02/24 09:02:54;;;;;;;0.30;0.20;;;;;;;8.00;100.00;100072.19;5014505;28;20472;-48
2022/02/24 09:05:21;;;;;;;0.30;0.30;;;;;;;7.89;100.00;100062.72;5004041;28;20452;-48
2022/02/24 09:07:47;;;;;;;0.30;0.20;;;;;;;8.02;100.00;100058.91;5014853;28;20456;-48
2022/02/24 09:10:27;;;;;;;0.20;0.20;;;;;;;8.12;100.00;100056.94;5013911;28;20442;-48
2022/02/24 09:12:54;;;;;;;0.30;0.20;;;;;;;8.36;100.00;100059.06;5003624;28;20464;-48
2022/02/24 09:15:20;;;;;;;0.30;0.20;;;;;;;8.45;100.00;100058.81;5015330;28;20519;-48
2022/02/24 09:17:48;;;;;;;0.30;0.20;;;;;;;8.58;100.00;100052.31;5007599;28;20523;-48
2022/02/24 09:20:15;;;;;;;0.30;0.20;;;;;;;8.88;100.00;100049.81;5010501;28;20488;-47
2022/02/24 09:22:41;;;;;;;0.30;0.10;;;;;;;8.56;100.00;100040.03;5015402;28;20476;-46
2022/02/24 09:25:09;;;;;;;0.30;0.20;;;;;;;8.59;100.00;100039.94;5002120;28;20516;-46
2022/02/24 09:27:36;;;;;;;0.30;0.30;;;;;;;8.78;100.00;100033.31;5015302;28;20507;-46
2022/02/24 09:30:06;;;;;;;0.30;0.20;;;;;;;9.27;98.35;100028.47;5012953;28;20511;-47
2022/02/24 09:32:34;;;;;;;0.30;0.30;;;;;;;9.18;98.53;100027.81;5003591;28;20550;-46
2022/02/24 09:35:02;;;;;;;0.30;0.20;;;;;;;9.35;98.44;100026.50;5015097;28;20453;-46
2022/02/24 09:37:34;;;;;;;0.30;0.20;;;;;;;9.43;98.52;100025.34;5005258;28;20454;-46
2022/02/24 09:40:03;;;;;;;0.30;0.10;;;;;;;9.27;98.80;100015.22;5012609;28;20524;-46
2022/02/24 09:42:43;;;;;;;0.30;0.20;;;;;;;9.11;99.48;99996.22;5014948;28;20508;-46
2022/02/24 09:45:10;;;;;;;0.30;0.20;;;;;;;8.94;99.79;99998.44;5006218;28;20480;-46
2022/02/24 09:47:38;;;;;;;0.30;0.10;;;;;;;9.04;99.88;99995.47;5002166;28;20461;-46
2022/02/24 09:50:07;;;;;;;0.30;0.17;;;;;;;9.03;99.71;99996.41;5002362;28;20523;-46
2022/02/24 09:52:34;;;;;;;0.30;0.20;;;;;;;9.16;99.61;99995.16;5001746;28;20481;-47
2022/02/24 09:55:00;;;;;;;0.47;0.47;;;;;;;9.55;97.97;99999.38;5015029;28;20453;-46
2022/02/24 09:57:27;;;;;;;0.30;0.20;;;;;;;9.47;98.33;99995.19;5014097;28;20552;-46
2022/02/24 09:59:54;;;;;;;0.30;0.20;;;;;;;9.55;98.48;99994.06;5002426;28;21001;-46
2022/02/24 10:02:21;;;;;;;0.30;0.20;;;;;;;9.53;98.29;99988.81;5014529;28;20469;-46
2022/02/24 10:05:06;;;;;;;0.30;0.20;;;;;;;9.49;99.63;99981.88;5006938;28;20541;-48
2022/02/24 10:07:41;;;;;;;0.30;0.20;;;;;;;9.87;97.88;99972.75;5012904;28;20881;-48
2022/02/24 10:10:31;;;;;;;0.30;0.20;;;;;;;9.71;97.76;99980.31;5014755;28;20448;-46
2022/02/24 10:13:04;;;;;;;0.30;0.20;;;;;;;9.76;99.26;99973.09;5003382;28;20992;-46
2022/02/24 10:15:31;;;;;;;0.30;0.20;;;;;;;9.75;98.60;99967.84;5011494;28;20444;-46
2022/02/24 10:18:10;;;;;;;0.40;0.40;;;;;;;9.82;98.54;99963.19;5004590;28;20824;-46
2022/02/24 10:20:45;;;;;;;0.30;0.20;;;;;;;9.91;97.35;99953.16;5012742;28;20492;-46
2022/02/24 10:23:14;;;;;;;0.30;0.10;;;;;;;10.41;95.51;99949.81;5014396;28;20448;-46
2022/02/24 10:25:47;;;;;;;1.03;0.80;;;;;;;10.18;94.77;99940.78;5001073;28;20518;-46
2022/02/24 10:28:42;;;;;;;0.30;0.20;;;;;;;10.17;95.31;99930.22;5013988;28;20456;-47
2022/02/24 10:31:11;;;;;;;0.30;0.20;;;;;;;10.24;94.84;99921.16;5003314;28;20468;-47
2022/02/24 10:33:43;;;;;;;0.30;0.20;;;;;;;10.33;95.57;99926.16;5012473;28;20945;-47
2022/02/24 10:36:22;;;;;;;0.30;0.20;;;;;;;10.44;93.96;99925.81;5014074;28;20460;-46
2022/02/24 10:39:07;;;;;;;0.40;0.40;;;;;;;10.49;94.63;99923.84;5001870;28;20823;-46
2022/02/24 10:41:40;;;;;;;0.80;0.70;;;;;;;11.03;92.51;99920.19;5000866;28;20484;-46
2022/02/24 10:44:23;;;;;;;0.30;0.20;;;;;;;11.20;92.56;99913.31;5014009;28;20503;-47
2022/02/24 10:47:04;;;;;;;0.30;0.20;;;;;;;11.17;91.65;99913.44;5020514;23;20540;-50
2022/02/24 10:49:36;;;;;;;0.30;0.20;;;;;;;11.43;91.29;99917.78;5013521;28;20452;-49
2022/02/24 10:52:17;;;;;;;0.30;0.20;;;;;;;11.56;90.20;99918.16;5014220;28;20448;-48
2022/02/24 10:54:57;;;;;;;0.30;0.20;;;;;;;11.45;89.70;99917.72;5013862;28;20444;-49
2022/02/24 10:57:26;;;;;;;0.30;0.20;;;;;;;11.45;89.15;99915.91;5020412;28;20980;-49
2022/02/24 10:59:57;;;;;;;0.30;0.20;;;;;;;11.68;89.04;99911.50;4994421;28;20550;-49
2022/02/24 11:02:26;;;;;;;0.30;0.20;;;;;;;11.85;88.11;99899.28;4994170;28;20488;-49
2022/02/24 11:04:54;;;;;;;0.30;0.20;;;;;;;11.86;88.10;99890.38;4994174;28;20826;-49
2022/02/24 11:07:22;;;;;;;0.30;0.20;;;;;;;11.56;87.39;99881.78;4993839;28;21006;-48
2022/02/24 11:09:50;;;;;;;0.30;0.20;;;;;;;11.68;88.89;99876.91;4993797;28;20818;-48
2022/02/24 11:12:19;;;;;;;0.30;0.20;;;;;;;11.61;89.19;99875.38;4993655;28;20458;-49
2022/02/24 11:14:46;;;;;;;0.30;0.20;;;;;;;11.68;89.88;99876.91;4994024;28;20457;-48
2022/02/24 11:17:14;;;;;;;0.30;0.20;;;;;;;11.71;89.57;99860.78;4993748;28;20522;-48
2022/02/24 11:19:45;;;;;;;0.30;0.20;;;;;;;11.87;89.04;99856.59;4993929;28;20493;-48
2022/02/24 11:22:12;;;;;;;0.30;0.20;;;;;;;12.01;88.86;99853.38;4993741;28;20870;-49
2022/02/24 11:24:39;;;;;;;0.30;0.20;;;;;;;12.14;88.74;99844.81;4993616;28;20450;-49
2022/02/24 11:27:35;;;;;;;0.30;0.20;;;;;;;12.19;87.30;99841.94;4993624;28;20532;-49
2022/02/24 11:30:05;;;;;;;0.30;0.20;;;;;;;12.22;86.31;99848.97;4993459;28;20453;-49